createdAt,value
2017-04-13T00:00:28.921Z,1010.14
2017-04-13T00:01:37.810Z,1010.13
2017-04-13T00:02:47.169Z,1010.15
2017-04-13T00:03:56.054Z,1010.11
2017-04-13T00:05:05.261Z,1010.1
2017-04-13T00:06:14.148Z,1010.09
2017-04-13T00:07:23.037Z,1010.09
2017-04-13T00:08:31.973Z,1010.06
2017-04-13T00:09:41.183Z,1010.09
2017-04-13T00:10:50.396Z,1010.12
2017-04-13T00:11:59.339Z,1010.1
2017-04-13T00:13:08.225Z,1010.14
2017-04-13T00:14:17.264Z,1010.14
2017-04-13T00:15:26.476Z,1010.19
2017-04-13T00:16:35.686Z,1010.2
2017-04-13T00:17:44.898Z,1010.18
2017-04-13T00:18:53.784Z,1010.17
2017-04-13T00:20:03.343Z,1010.17
2017-04-13T00:21:12.553Z,1010.2
2017-04-13T00:22:21.766Z,1010.2
2017-04-13T00:23:30.651Z,1010.15
2017-04-13T00:24:39.858Z,1010.15
2017-04-13T00:25:49.542Z,1010.14
2017-04-13T00:26:58.751Z,1010.09
2017-04-13T00:28:07.636Z,1010.08
2017-04-13T00:29:16.851Z,1010.09
2017-04-13T00:30:26.065Z,1010.01
2017-04-13T00:31:35.098Z,1010
2017-04-13T00:32:43.981Z,1010
2017-04-13T00:33:53.519Z,1009.94
2017-04-13T00:35:02.405Z,1009.93
2017-04-13T00:36:11.290Z,1009.86
2017-04-13T00:37:20.329Z,1009.84
2017-04-13T00:38:29.861Z,1009.88
2017-04-13T00:39:39.401Z,1009.82
2017-04-13T00:40:48.608Z,1009.86
2017-04-13T00:41:58.140Z,1009.82
2017-04-13T00:43:07.178Z,1009.78
2017-04-13T00:44:16.717Z,1009.8
2017-04-13T00:45:26.582Z,1009.84
2017-04-13T00:46:35.791Z,1009.84
2017-04-13T00:47:44.686Z,1009.87
2017-04-13T00:48:53.954Z,1009.85
2017-04-13T00:50:02.841Z,1009.81
2017-04-13T00:51:12.377Z,1009.79
2017-04-13T00:52:21.590Z,1009.83
2017-04-13T00:53:30.808Z,1009.76
2017-04-13T00:54:40.172Z,1009.76
2017-04-13T00:55:49.380Z,1009.75
2017-04-13T00:56:58.269Z,1009.73
2017-04-13T00:58:07.480Z,1009.74
2017-04-13T00:59:17.340Z,1009.73
2017-04-13T01:00:26.705Z,1009.69
2017-04-13T01:01:35.914Z,1009.71
2017-04-13T01:02:45.450Z,1009.72
2017-04-13T01:03:54.334Z,1009.72
2017-04-13T01:05:03.218Z,1009.78
2017-04-13T01:06:12.531Z,1009.82
2017-04-13T01:07:21.744Z,1009.83
2017-04-13T01:08:30.636Z,1009.83
2017-04-13T01:09:39.562Z,1009.83
2017-04-13T01:10:49.094Z,1009.83
2017-04-13T01:11:58.129Z,1009.8
2017-04-13T01:13:07.342Z,1009.78
2017-04-13T01:14:16.230Z,1009.77
2017-04-13T01:15:25.114Z,1009.78
2017-04-13T01:16:33.999Z,1009.78
2017-04-13T01:17:43.209Z,1009.75
2017-04-13T01:18:52.426Z,1009.71
2017-04-13T01:20:01.311Z,1009.66
2017-04-13T01:21:10.205Z,1009.67
2017-04-13T01:22:19.418Z,1009.64
2017-04-13T01:23:28.926Z,1009.67
2017-04-13T01:24:38.790Z,1009.64
2017-04-13T01:25:48.002Z,1009.64
2017-04-13T01:26:56.890Z,1009.67
2017-04-13T01:28:05.826Z,1009.69
2017-04-13T01:29:15.841Z,1009.68
2017-04-13T01:30:25.375Z,1009.65
2017-04-13T01:31:34.260Z,1009.66
2017-04-13T01:32:43.182Z,1009.69
2017-04-13T01:33:53.048Z,1009.72
2017-04-13T01:35:01.995Z,1009.71
2017-04-13T01:36:11.859Z,1009.68
2017-04-13T01:37:21.395Z,1009.63
2017-04-13T01:38:30.934Z,1009.64
2017-04-13T01:39:40.471Z,1009.6
2017-04-13T01:40:50.272Z,1009.58
2017-04-13T01:41:59.163Z,1009.57
2017-04-13T01:43:08.376Z,1009.59
2017-04-13T01:44:17.582Z,1009.61
2017-04-13T01:45:26.795Z,1009.61
2017-04-13T01:46:36.029Z,1009.65
2017-04-13T01:47:44.915Z,1009.65
2017-04-13T01:48:53.802Z,1009.66
2017-04-13T01:50:02.690Z,1009.68
2017-04-13T01:51:11.906Z,1009.64
2017-04-13T01:52:21.269Z,1009.67
2017-04-13T01:53:30.816Z,1009.67
2017-04-13T01:54:40.354Z,1009.62
2017-04-13T01:55:49.566Z,1009.6
2017-04-13T01:56:58.780Z,1009.53
2017-04-13T01:58:07.715Z,1009.52
2017-04-13T01:59:16.606Z,1009.53
2017-04-13T02:00:26.145Z,1009.56
2017-04-13T02:01:35.357Z,1009.58
2017-04-13T02:02:44.242Z,1009.65
2017-04-13T02:03:53.276Z,1009.66
2017-04-13T02:05:02.490Z,1009.68
2017-04-13T02:06:12.051Z,1009.65
2017-04-13T02:07:20.935Z,1009.62
2017-04-13T02:08:30.520Z,1009.68
2017-04-13T02:09:39.555Z,1009.69
2017-04-13T02:10:48.763Z,1009.73
2017-04-13T02:11:57.648Z,1009.79
2017-04-13T02:13:06.860Z,1009.81
2017-04-13T02:14:16.121Z,1009.83
2017-04-13T02:15:25.333Z,1009.79
2017-04-13T02:16:34.539Z,1009.87
2017-04-13T02:17:43.750Z,1009.86
2017-04-13T02:18:53.298Z,1009.82
2017-04-13T02:20:02.830Z,1009.78
2017-04-13T02:21:12.467Z,1009.81
2017-04-13T02:22:21.680Z,1009.82
2017-04-13T02:23:30.572Z,1009.81
2017-04-13T02:24:40.107Z,1009.91
2017-04-13T02:25:49.334Z,1009.83
2017-04-13T02:26:58.425Z,1009.8
2017-04-13T02:28:07.635Z,1009.79
2017-04-13T02:29:16.841Z,1009.82
2017-04-13T02:30:26.053Z,1009.8
2017-04-13T02:31:35.270Z,1009.83
2017-04-13T02:32:44.209Z,1009.8
2017-04-13T02:33:53.102Z,1009.83
2017-04-13T02:35:01.992Z,1009.86
2017-04-13T02:36:10.880Z,1009.87
2017-04-13T02:37:19.769Z,1009.85
2017-04-13T02:38:29.280Z,1009.79
2017-04-13T02:39:38.165Z,1009.74
2017-04-13T02:40:47.055Z,1009.77
2017-04-13T02:41:55.942Z,1009.8
2017-04-13T02:43:05.154Z,1009.7
2017-04-13T02:44:14.420Z,1009.73
2017-04-13T02:45:23.633Z,1009.73
2017-04-13T02:46:32.847Z,1009.72
2017-04-13T02:47:42.057Z,1009.67
2017-04-13T02:48:50.945Z,1009.66
2017-04-13T02:50:00.412Z,1009.64
2017-04-13T02:51:09.347Z,1009.62
2017-04-13T02:52:18.238Z,1009.61
2017-04-13T02:53:27.128Z,1009.65
2017-04-13T02:54:36.671Z,1009.65
2017-04-13T02:55:46.029Z,1009.64
2017-04-13T02:56:54.911Z,1009.61
2017-04-13T02:58:03.796Z,1009.64
2017-04-13T02:59:12.681Z,1009.56
2017-04-13T03:00:21.566Z,1009.55
2017-04-13T03:01:30.513Z,1009.56
2017-04-13T03:02:39.724Z,1009.58
2017-04-13T03:03:48.609Z,1009.56
2017-04-13T03:04:57.819Z,1009.62
2017-04-13T03:06:06.707Z,1009.6
2017-04-13T03:07:15.743Z,1009.61
2017-04-13T03:08:24.629Z,1009.64
2017-04-13T03:09:33.841Z,1009.57
2017-04-13T03:10:43.115Z,1009.6
2017-04-13T03:11:52.328Z,1009.66
2017-04-13T03:13:01.470Z,1009.66
2017-04-13T03:14:11.005Z,1009.71
2017-04-13T03:15:20.889Z,1009.72
2017-04-13T03:16:29.783Z,1009.7
2017-04-13T03:17:38.672Z,1009.7
2017-04-13T03:18:48.310Z,1009.68
2017-04-13T03:19:57.857Z,1009.7
2017-04-13T03:21:07.396Z,1009.7
2017-04-13T03:22:16.281Z,1009.69
2017-04-13T03:23:25.170Z,1009.68
2017-04-13T03:24:35.143Z,1009.69
2017-04-13T03:25:44.034Z,1009.7
2017-04-13T03:26:53.245Z,1009.66
2017-04-13T03:28:02.132Z,1009.63
2017-04-13T03:29:11.358Z,1009.66
2017-04-13T03:30:20.500Z,1009.65
2017-04-13T03:31:29.385Z,1009.66
2017-04-13T03:32:38.285Z,1009.64
2017-04-13T03:33:47.169Z,1009.66
2017-04-13T03:34:56.704Z,1009.7
2017-04-13T03:36:06.014Z,1009.69
2017-04-13T03:37:15.273Z,1009.74
2017-04-13T03:38:24.481Z,1009.72
2017-04-13T03:39:33.371Z,1009.74
2017-04-13T03:40:42.580Z,1009.71
2017-04-13T03:41:51.992Z,1009.72
2017-04-13T03:43:01.259Z,1009.75
2017-04-13T03:44:10.145Z,1009.74
2017-04-13T03:45:19.357Z,1009.75
2017-04-13T03:46:28.566Z,1009.71
2017-04-13T03:47:37.600Z,1009.72
2017-04-13T03:48:46.877Z,1009.77
2017-04-13T03:49:55.761Z,1009.74
2017-04-13T03:51:04.971Z,1009.68
2017-04-13T03:52:13.864Z,1009.72
2017-04-13T03:53:23.001Z,1009.72
2017-04-13T03:54:32.209Z,1009.68
2017-04-13T03:55:41.748Z,1009.72
2017-04-13T03:56:50.959Z,1009.76
2017-04-13T03:57:59.845Z,1009.8
2017-04-13T03:59:09.058Z,1009.78
2017-04-13T04:00:18.655Z,1009.75
2017-04-13T04:01:27.873Z,1009.75
2017-04-13T04:02:37.089Z,1009.77
2017-04-13T04:03:45.979Z,1009.76
2017-04-13T04:04:55.014Z,1009.73
2017-04-13T04:06:03.934Z,1009.75
2017-04-13T04:07:12.825Z,1009.68
2017-04-13T04:08:21.754Z,1009.71
2017-04-13T04:09:30.693Z,1009.67
2017-04-13T04:10:39.825Z,1009.67
2017-04-13T04:11:48.765Z,1009.64
2017-04-13T04:12:57.648Z,1009.63
2017-04-13T04:14:06.535Z,1009.65
2017-04-13T04:15:15.745Z,1009.69
2017-04-13T04:16:24.954Z,1009.67
2017-04-13T04:17:33.840Z,1009.72
2017-04-13T04:18:43.057Z,1009.73
2017-04-13T04:19:51.942Z,1009.76
2017-04-13T04:21:00.824Z,1009.85
2017-04-13T04:22:09.968Z,1009.87
2017-04-13T04:23:19.512Z,1009.88
2017-04-13T04:24:28.719Z,1009.87
2017-04-13T04:25:37.617Z,1009.83
2017-04-13T04:26:46.505Z,1009.86
2017-04-13T04:27:55.544Z,1009.86
2017-04-13T04:29:05.091Z,1009.83
2017-04-13T04:30:13.973Z,1009.85
2017-04-13T04:31:22.857Z,1009.85
2017-04-13T04:32:32.070Z,1009.87
2017-04-13T04:33:40.955Z,1009.9
2017-04-13T04:34:50.176Z,1009.93
2017-04-13T04:35:59.061Z,1010
2017-04-13T04:37:07.949Z,1010.04
2017-04-13T04:38:16.833Z,1010.01
2017-04-13T04:39:25.770Z,1009.99
2017-04-13T04:40:34.658Z,1010
2017-04-13T04:41:43.545Z,1009.94
2017-04-13T04:42:52.428Z,1009.96
2017-04-13T04:44:01.965Z,1010
2017-04-13T04:45:11.228Z,1009.92
2017-04-13T04:46:20.110Z,1009.88
2017-04-13T04:47:28.999Z,1009.89
2017-04-13T04:48:37.883Z,1009.95
2017-04-13T04:49:46.767Z,1009.98
2017-04-13T04:50:55.951Z,1009.93
2017-04-13T04:52:05.167Z,1009.97
2017-04-13T04:53:14.098Z,1009.95
2017-04-13T04:54:22.981Z,1009.97
2017-04-13T04:55:32.196Z,1009.94
2017-04-13T04:56:41.782Z,1009.89
2017-04-13T04:57:50.666Z,1009.89
2017-04-13T04:58:59.875Z,1009.98
2017-04-13T05:00:09.122Z,1009.92
2017-04-13T05:01:18.355Z,1009.96
2017-04-13T05:02:27.347Z,1009.91
2017-04-13T05:03:36.561Z,1009.89
2017-04-13T05:04:45.449Z,1009.87
2017-04-13T05:05:54.341Z,1009.9
2017-04-13T05:07:03.232Z,1009.87
2017-04-13T05:08:12.271Z,1009.86
2017-04-13T05:09:21.807Z,1009.86
2017-04-13T05:10:30.701Z,1009.9
2017-04-13T05:11:39.586Z,1009.95
2017-04-13T05:12:48.469Z,1009.97
2017-04-13T05:13:57.732Z,1009.99
2017-04-13T05:15:06.625Z,1009.96
2017-04-13T05:16:15.510Z,1009.96
2017-04-13T05:17:24.393Z,1009.94
2017-04-13T05:18:33.927Z,1009.97
2017-04-13T05:19:42.959Z,1010
2017-04-13T05:20:51.847Z,1010
2017-04-13T05:22:00.736Z,1010.03
2017-04-13T05:23:09.951Z,1010.03
2017-04-13T05:24:18.836Z,1010.04
2017-04-13T05:25:27.872Z,1010.01
2017-04-13T05:26:36.758Z,1010.04
2017-04-13T05:27:45.974Z,1010.11
2017-04-13T05:28:54.863Z,1010.11
2017-04-13T05:30:04.073Z,1010.12
2017-04-13T05:31:13.335Z,1010.17
2017-04-13T05:32:22.234Z,1010.15
2017-04-13T05:33:31.123Z,1010.13
2017-04-13T05:34:40.336Z,1010.17
2017-04-13T05:35:49.548Z,1010.18
2017-04-13T05:36:59.334Z,1010.23
2017-04-13T05:38:08.223Z,1010.23
2017-04-13T05:39:17.436Z,1010.21
2017-04-13T05:40:26.327Z,1010.27
2017-04-13T05:41:35.220Z,1010.3
2017-04-13T05:42:44.357Z,1010.26
2017-04-13T05:43:53.567Z,1010.3
2017-04-13T05:45:02.778Z,1010.29
2017-04-13T05:46:11.989Z,1010.29
2017-04-13T05:47:21.202Z,1010.29
2017-04-13T05:48:30.241Z,1010.37
2017-04-13T05:49:39.126Z,1010.35
2017-04-13T05:50:48.012Z,1010.35
2017-04-13T05:51:56.897Z,1010.35
2017-04-13T05:53:05.784Z,1010.35
2017-04-13T05:54:14.723Z,1010.36
2017-04-13T05:55:24.264Z,1010.4
2017-04-13T05:56:33.149Z,1010.4
2017-04-13T05:57:42.033Z,1010.42
2017-04-13T05:58:51.581Z,1010.43
2017-04-13T06:00:00.615Z,1010.41
2017-04-13T06:01:09.824Z,1010.42
2017-04-13T06:02:19.365Z,1010.42
2017-04-13T06:03:28.251Z,1010.4
2017-04-13T06:04:37.467Z,1010.51
2017-04-13T06:05:46.503Z,1010.44
2017-04-13T06:06:55.394Z,1010.43
2017-04-13T06:08:04.607Z,1010.46
2017-04-13T06:09:13.833Z,1010.53
2017-04-13T06:10:22.726Z,1010.5
2017-04-13T06:11:32.022Z,1010.53
2017-04-13T06:12:40.952Z,1010.53
2017-04-13T06:13:49.835Z,1010.49
2017-04-13T06:14:58.722Z,1010.52
2017-04-13T06:16:07.615Z,1010.53
2017-04-13T06:17:16.983Z,1010.57
2017-04-13T06:18:26.199Z,1010.52
2017-04-13T06:19:35.449Z,1010.5
2017-04-13T06:20:44.994Z,1010.59
2017-04-13T06:21:53.879Z,1010.52
2017-04-13T06:23:03.025Z,1010.6
2017-04-13T06:24:11.913Z,1010.61
2017-04-13T06:25:21.125Z,1010.59
2017-04-13T06:26:30.663Z,1010.6
2017-04-13T06:27:39.556Z,1010.68
2017-04-13T06:28:48.595Z,1010.67
2017-04-13T06:29:57.481Z,1010.66
2017-04-13T06:31:06.367Z,1010.66
2017-04-13T06:32:15.260Z,1010.7
2017-04-13T06:33:24.797Z,1010.72
2017-04-13T06:34:34.084Z,1010.69
2017-04-13T06:35:43.301Z,1010.66
2017-04-13T06:36:52.517Z,1010.71
2017-04-13T06:38:01.407Z,1010.7
2017-04-13T06:39:10.291Z,1010.64
2017-04-13T06:40:19.704Z,1010.61
2017-04-13T06:41:28.589Z,1010.65
2017-04-13T06:42:37.800Z,1010.65
2017-04-13T06:43:46.686Z,1010.66
2017-04-13T06:44:55.573Z,1010.71
2017-04-13T06:46:04.933Z,1010.74
2017-04-13T06:47:13.833Z,1010.67
2017-04-13T06:48:22.726Z,1010.72
2017-04-13T06:49:31.618Z,1010.77
2017-04-13T06:50:40.510Z,1010.7
2017-04-13T06:51:49.807Z,1010.74
2017-04-13T06:52:58.694Z,1010.82
2017-04-13T06:54:07.578Z,1010.78
2017-04-13T06:55:16.551Z,1010.81
2017-04-13T06:56:25.764Z,1010.85
2017-04-13T06:57:35.509Z,1010.86
2017-04-13T06:58:44.725Z,1010.78
2017-04-13T06:59:53.609Z,1010.85
2017-04-13T07:01:02.494Z,1010.86
2017-04-13T07:02:11.707Z,1010.86
2017-04-13T07:03:21.122Z,1010.83
2017-04-13T07:04:30.011Z,1010.85
2017-04-13T07:05:38.956Z,1010.83
2017-04-13T07:06:48.170Z,1010.87
2017-04-13T07:07:57.067Z,1010.87
2017-04-13T07:09:06.262Z,1010.99
2017-04-13T07:10:15.472Z,1010.9
2017-04-13T07:11:24.360Z,1010.99
2017-04-13T07:12:33.299Z,1011
2017-04-13T07:13:42.191Z,1010.93
2017-04-13T07:14:51.141Z,1010.99
2017-04-13T07:16:00.031Z,1011.01
2017-04-13T07:17:09.251Z,1010.99
2017-04-13T07:18:18.143Z,1010.99
2017-04-13T07:19:27.036Z,1011.09
2017-04-13T07:20:36.085Z,1011.01
2017-04-13T07:21:45.624Z,1011.1
2017-04-13T07:22:54.517Z,1011.04
2017-04-13T07:24:03.404Z,1011.07
2017-04-13T07:25:12.291Z,1011.02
2017-04-13T07:26:21.658Z,1011.05
2017-04-13T07:27:31.525Z,1011.09
2017-04-13T07:28:40.413Z,1011.03
2017-04-13T07:29:49.307Z,1011.17
2017-04-13T07:30:58.202Z,1011.04
2017-04-13T07:32:07.253Z,1011.17
2017-04-13T07:33:16.144Z,1011.14
2017-04-13T07:34:25.061Z,1011.14
2017-04-13T07:35:34.273Z,1011.13
2017-04-13T07:36:43.163Z,1011.27
2017-04-13T07:37:52.103Z,1011.28
2017-04-13T07:39:00.993Z,1011.25
2017-04-13T07:40:09.883Z,1011.21
2017-04-13T07:41:18.773Z,1011.24
2017-04-13T07:42:27.990Z,1011.21
2017-04-13T07:43:37.137Z,1011.18
2017-04-13T07:44:46.027Z,1011.15
2017-04-13T07:45:54.959Z,1011.26
2017-04-13T07:47:03.849Z,1011.28
2017-04-13T07:48:12.742Z,1011.17
2017-04-13T07:49:21.881Z,1011.26
2017-04-13T07:50:30.770Z,1011.3
2017-04-13T07:51:39.657Z,1011.23
2017-04-13T07:52:48.870Z,1011.26
2017-04-13T07:53:57.758Z,1011.26
2017-04-13T07:55:06.751Z,1011.22
2017-04-13T07:56:15.643Z,1011.29
2017-04-13T07:57:24.855Z,1011.36
2017-04-13T07:58:34.067Z,1011.32
2017-04-13T07:59:43.001Z,1011.41
2017-04-13T08:00:52.192Z,1011.24
2017-04-13T08:02:01.086Z,1011.28
2017-04-13T08:03:09.979Z,1011.3
2017-04-13T08:04:19.190Z,1011.36
2017-04-13T08:05:28.404Z,1011.37
2017-04-13T08:06:37.454Z,1011.28
2017-04-13T08:07:46.682Z,1011.39
2017-04-13T08:08:55.583Z,1011.41
2017-04-13T08:10:04.482Z,1011.43
2017-04-13T08:11:13.699Z,1011.38
2017-04-13T08:12:22.966Z,1011.44
2017-04-13T08:13:31.857Z,1011.39
2017-04-13T08:14:40.745Z,1011.44
2017-04-13T08:15:49.634Z,1011.49
2017-04-13T08:16:58.541Z,1011.43
2017-04-13T08:18:07.812Z,1011.4
2017-04-13T08:19:17.024Z,1011.53
2017-04-13T08:20:26.239Z,1011.45
2017-04-13T08:21:35.128Z,1011.5
2017-04-13T08:22:44.669Z,1011.53
2017-04-13T08:23:53.710Z,1011.46
2017-04-13T08:25:02.603Z,1011.5
2017-04-13T08:26:11.497Z,1011.49
2017-04-13T08:27:20.392Z,1011.64
2017-04-13T08:28:29.615Z,1011.63
2017-04-13T08:29:39.705Z,1011.57
2017-04-13T08:30:48.598Z,1011.56
2017-04-13T08:31:57.493Z,1011.59
2017-04-13T08:33:07.028Z,1011.66
2017-04-13T08:34:16.241Z,1011.58
2017-04-13T08:35:25.227Z,1011.65
2017-04-13T08:36:34.118Z,1011.65
2017-04-13T08:37:43.329Z,1011.68
2017-04-13T08:38:52.217Z,1011.72
2017-04-13T08:40:01.106Z,1011.69
2017-04-13T08:41:10.148Z,1011.76
2017-04-13T08:42:19.041Z,1011.7
2017-04-13T08:43:28.263Z,1011.73
2017-04-13T08:44:37.164Z,1011.74
2017-04-13T08:45:46.719Z,1011.68
2017-04-13T08:46:55.771Z,1011.74
2017-04-13T08:48:04.675Z,1011.72
2017-04-13T08:49:13.573Z,1011.7
2017-04-13T08:50:22.475Z,1011.72
2017-04-13T08:51:31.386Z,1011.7
2017-04-13T08:52:40.770Z,1011.74
2017-04-13T08:53:49.666Z,1011.73
2017-04-13T08:54:58.572Z,1011.67
2017-04-13T08:56:07.459Z,1011.64
2017-04-13T08:57:16.352Z,1011.55
2017-04-13T08:58:25.390Z,1011.7
2017-04-13T08:59:34.278Z,1011.7
2017-04-13T09:00:43.169Z,1011.78
2017-04-13T09:01:52.082Z,1011.69
2017-04-13T09:03:01.294Z,1011.73
2017-04-13T09:04:10.433Z,1011.85
2017-04-13T09:05:19.329Z,1011.79
2017-04-13T09:06:28.550Z,1011.73
2017-04-13T09:07:37.487Z,1011.77
2017-04-13T09:08:46.379Z,1011.92
2017-04-13T09:09:55.318Z,1011.84
2017-04-13T09:11:04.218Z,1011.88
2017-04-13T09:12:13.112Z,1011.85
2017-04-13T09:13:22.001Z,1011.78
2017-04-13T09:14:30.896Z,1011.78
2017-04-13T09:15:39.837Z,1011.86
2017-04-13T09:16:48.725Z,1011.85
2017-04-13T09:17:57.614Z,1011.91
2017-04-13T09:19:06.503Z,1011.86
2017-04-13T09:20:15.717Z,1012.14
2017-04-13T09:21:24.659Z,1011.98
2017-04-13T09:22:34.197Z,1012
2017-04-13T09:23:43.091Z,1011.98
2017-04-13T09:24:51.980Z,1011.96
2017-04-13T09:26:01.196Z,1011.89
2017-04-13T09:27:10.188Z,1011.93
2017-04-13T09:28:19.404Z,1011.91
2017-04-13T09:29:28.294Z,1011.96
2017-04-13T09:30:37.180Z,1012.05
2017-04-13T09:31:46.070Z,1011.91
2017-04-13T09:32:55.107Z,1011.99
2017-04-13T09:34:03.997Z,1011.92
2017-04-13T09:35:12.893Z,1011.99
2017-04-13T09:36:22.113Z,1011.99
2017-04-13T09:37:31.327Z,1012.04
2017-04-13T09:38:40.592Z,1012.08
2017-04-13T09:39:49.481Z,1012.11
2017-04-13T09:40:58.370Z,1012.17
2017-04-13T09:42:07.275Z,1011.97
2017-04-13T09:43:16.492Z,1012.03
2017-04-13T09:44:25.536Z,1012.07
2017-04-13T09:45:34.434Z,1012.17
2017-04-13T09:46:43.645Z,1012.09
2017-04-13T09:47:52.863Z,1012.02
2017-04-13T09:49:01.757Z,1012.21
2017-04-13T09:50:10.698Z,1012.12
2017-04-13T09:51:19.589Z,1012.05
2017-04-13T09:52:28.485Z,1012.07
2017-04-13T09:53:37.377Z,1011.99
2017-04-13T09:54:46.271Z,1012.1
2017-04-13T09:55:55.169Z,1012
2017-04-13T09:57:04.061Z,1012.42
2017-04-13T09:58:13.278Z,1012.15
2017-04-13T09:59:22.167Z,1012.34
2017-04-13T10:00:31.378Z,1012.41
2017-04-13T10:01:40.319Z,1012.34
2017-04-13T10:02:49.208Z,1012.34
2017-04-13T10:03:58.097Z,1012.33
2017-04-13T10:05:06.991Z,1012.26
2017-04-13T10:06:15.882Z,1012.29
2017-04-13T10:07:24.869Z,1012.31
2017-04-13T10:08:34.132Z,1012.27
2017-04-13T10:09:43.021Z,1012.3
2017-04-13T10:10:51.911Z,1012.3
2017-04-13T10:12:00.799Z,1012.24
2017-04-13T10:13:10.221Z,1012.23
2017-04-13T10:14:19.438Z,1012.24
2017-04-13T10:15:28.326Z,1012.28
2017-04-13T10:16:37.866Z,1012.27
2017-04-13T10:17:47.082Z,1012.25
2017-04-13T10:18:56.122Z,1012.27
2017-04-13T10:20:05.337Z,1012.23
2017-04-13T10:21:14.227Z,1012.23
2017-04-13T10:22:23.119Z,1012.24
2017-04-13T10:23:32.087Z,1012.22
2017-04-13T10:24:41.123Z,1012.24
2017-04-13T10:25:50.013Z,1012.22
2017-04-13T10:26:58.901Z,1012.23
2017-04-13T10:28:07.802Z,1012.24
2017-04-13T10:29:16.690Z,1012.22
2017-04-13T10:30:25.829Z,1012.25
2017-04-13T10:31:35.046Z,1012.35
2017-04-13T10:32:43.929Z,1012.36
2017-04-13T10:33:53.140Z,1012.41
2017-04-13T10:35:02.355Z,1012.36
2017-04-13T10:36:11.352Z,1012.43
2017-04-13T10:37:20.250Z,1012.38
2017-04-13T10:38:29.138Z,1012.33
2017-04-13T10:39:38.090Z,1012.37
2017-04-13T10:40:47.309Z,1012.34
2017-04-13T10:41:56.347Z,1012.29
2017-04-13T10:43:05.569Z,1012.33
2017-04-13T10:44:14.783Z,1012.33
2017-04-13T10:45:23.679Z,1012.28
2017-04-13T10:46:32.576Z,1012.26
2017-04-13T10:47:41.615Z,1012.35
2017-04-13T10:48:50.503Z,1012.4
2017-04-13T10:49:59.721Z,1012.37
2017-04-13T10:51:08.613Z,1012.35
2017-04-13T10:52:17.511Z,1012.36
2017-04-13T10:53:26.649Z,1012.33
2017-04-13T10:54:35.539Z,1012.43
2017-04-13T10:55:44.426Z,1012.38
2017-04-13T10:56:53.642Z,1012.43
2017-04-13T10:58:03.181Z,1012.39
2017-04-13T10:59:12.123Z,1012.32
2017-04-13T11:00:21.338Z,1012.35
2017-04-13T11:01:30.228Z,1012.35
2017-04-13T11:02:39.116Z,1012.37
2017-04-13T11:03:48.329Z,1012.47
2017-04-13T11:04:57.320Z,1012.58
2017-04-13T11:06:06.538Z,1012.47
2017-04-13T11:07:15.747Z,1012.5
2017-04-13T11:08:24.784Z,1012.48
2017-04-13T11:09:33.674Z,1012.48
2017-04-13T11:10:42.767Z,1012.46
2017-04-13T11:11:51.657Z,1012.48
2017-04-13T11:13:00.548Z,1012.51
2017-04-13T11:14:09.767Z,1012.39
2017-04-13T11:15:18.656Z,1012.47
2017-04-13T11:16:27.695Z,1012.33
2017-04-13T11:17:36.593Z,1012.38
2017-04-13T11:18:45.522Z,1012.52
2017-04-13T11:19:54.450Z,1012.5
2017-04-13T11:21:03.664Z,1012.58
2017-04-13T11:22:13.028Z,1012.57
2017-04-13T11:23:22.242Z,1012.69
2017-04-13T11:24:31.132Z,1012.65
2017-04-13T11:25:40.019Z,1012.66
2017-04-13T11:26:48.912Z,1012.68
2017-04-13T11:27:57.897Z,1012.67
2017-04-13T11:29:07.116Z,1012.67
2017-04-13T11:30:16.015Z,1012.72
2017-04-13T11:31:24.906Z,1012.64
2017-04-13T11:32:33.797Z,1012.73
2017-04-13T11:33:42.985Z,1012.61
2017-04-13T11:34:51.873Z,1012.71
2017-04-13T11:36:00.762Z,1012.67
2017-04-13T11:37:09.984Z,1012.63
2017-04-13T11:38:18.873Z,1012.61
2017-04-13T11:39:27.909Z,1012.65
2017-04-13T11:40:36.796Z,1012.65
2017-04-13T11:41:45.687Z,1012.68
2017-04-13T11:42:54.580Z,1012.77
2017-04-13T11:44:03.477Z,1012.68
2017-04-13T11:45:12.514Z,1012.83
2017-04-13T11:46:21.419Z,1012.71
2017-04-13T11:47:30.639Z,1012.83
2017-04-13T11:48:39.529Z,1012.86
2017-04-13T11:49:48.416Z,1012.91
2017-04-13T11:50:57.357Z,1012.8
2017-04-13T11:52:06.247Z,1012.82
2017-04-13T11:53:15.464Z,1012.82
2017-04-13T11:54:24.354Z,1012.82
2017-04-13T11:55:33.568Z,1012.72
2017-04-13T11:56:42.982Z,1012.73
2017-04-13T11:57:51.875Z,1012.72
2017-04-13T11:59:01.419Z,1012.82
2017-04-13T12:00:10.644Z,1012.8
2017-04-13T12:01:19.540Z,1012.66
2017-04-13T12:02:28.429Z,1012.73
2017-04-13T12:03:37.970Z,1012.74
2017-04-13T12:04:47.557Z,1012.76
2017-04-13T12:05:56.453Z,1012.78
2017-04-13T12:07:05.342Z,1012.77
2017-04-13T12:08:14.385Z,1012.68
2017-04-13T12:09:23.281Z,1012.79
2017-04-13T12:10:32.178Z,1012.84
2017-04-13T12:11:41.396Z,1012.83
2017-04-13T12:12:50.943Z,1012.74
2017-04-13T12:13:59.980Z,1012.91
2017-04-13T12:15:09.195Z,1012.91
2017-04-13T12:16:18.416Z,1012.86
2017-04-13T12:17:27.312Z,1012.79
2017-04-13T12:18:36.537Z,1012.85
2017-04-13T12:19:46.097Z,1012.92
2017-04-13T12:20:54.990Z,1012.91
2017-04-13T12:22:03.881Z,1012.91
2017-04-13T12:23:12.774Z,1012.99
2017-04-13T12:24:21.988Z,1012.94
2017-04-13T12:25:31.029Z,1012.96
2017-04-13T12:26:40.244Z,1013
2017-04-13T12:27:49.137Z,1013.04
2017-04-13T12:28:58.034Z,1012.94
2017-04-13T12:30:06.969Z,1012.93
2017-04-13T12:31:16.011Z,1012.99
2017-04-13T12:32:25.228Z,1012.92
2017-04-13T12:33:34.445Z,1012.98
2017-04-13T12:34:43.658Z,1012.91
2017-04-13T12:35:52.547Z,1012.91
2017-04-13T12:37:01.585Z,1012.93
2017-04-13T12:38:10.800Z,1012.86
2017-04-13T12:39:19.694Z,1013.03
2017-04-13T12:40:28.583Z,1013.12
2017-04-13T12:41:37.476Z,1013.27
2017-04-13T12:42:46.945Z,1013.46
2017-04-13T12:43:55.834Z,1013.3
2017-04-13T12:45:04.762Z,1013.32
2017-04-13T12:46:13.975Z,1013.15
2017-04-13T12:47:23.187Z,1013.15
2017-04-13T12:48:32.651Z,1013.3
2017-04-13T12:49:41.544Z,1013.34
2017-04-13T12:50:50.432Z,1013.37
2017-04-13T12:51:59.323Z,1013.3
2017-04-13T12:53:08.212Z,1013.3
2017-04-13T12:54:17.355Z,1013.25
2017-04-13T12:55:26.576Z,1013.25
2017-04-13T12:56:35.789Z,1013.2
2017-04-13T12:57:44.678Z,1013.23
2017-04-13T12:58:53.892Z,1013.14
2017-04-13T13:00:03.129Z,1013.15
2017-04-13T13:01:12.666Z,1013.16
2017-04-13T13:02:21.553Z,1013.23
2017-04-13T13:03:30.444Z,1013.24
2017-04-13T13:04:39.347Z,1013.15
2017-04-13T13:05:48.389Z,1013.15
2017-04-13T13:06:57.288Z,1013.15
2017-04-13T13:08:06.178Z,1013.08
2017-04-13T13:09:15.075Z,1013.15
2017-04-13T13:10:23.965Z,1013.17
2017-04-13T13:11:33.004Z,1013
2017-04-13T13:12:41.896Z,1013.09
2017-04-13T13:13:51.113Z,1013.15
2017-04-13T13:15:00.003Z,1013.18
2017-04-13T13:16:08.898Z,1013.09
2017-04-13T13:17:17.991Z,1013.1
2017-04-13T13:18:26.883Z,1013.09
2017-04-13T13:19:35.775Z,1013.14
2017-04-13T13:20:44.672Z,1013.12
2017-04-13T13:21:53.570Z,1013.12
2017-04-13T13:23:02.568Z,1013.18
2017-04-13T13:24:11.461Z,1013.12
2017-04-13T13:25:20.365Z,1013.1
2017-04-13T13:26:29.262Z,1013.1
2017-04-13T13:27:38.823Z,1013.07
2017-04-13T13:28:48.190Z,1013.13
2017-04-13T13:29:57.083Z,1013.25
2017-04-13T13:31:05.979Z,1013.12
2017-04-13T13:32:15.199Z,1013.14
2017-04-13T13:33:24.096Z,1013.23
2017-04-13T13:34:33.145Z,1013.25
2017-04-13T13:35:42.039Z,1013.23
2017-04-13T13:36:50.935Z,1013.14
2017-04-13T13:37:59.834Z,1013.21
2017-04-13T13:39:08.726Z,1013.2
2017-04-13T13:40:18.019Z,1013.18
2017-04-13T13:41:26.916Z,1013.17
2017-04-13T13:42:36.150Z,1013.15
2017-04-13T13:43:45.365Z,1013.16
2017-04-13T13:44:54.591Z,1013.16
2017-04-13T13:46:03.961Z,1013.25
2017-04-13T13:47:13.187Z,1013.11
2017-04-13T13:48:22.083Z,1013.09
2017-04-13T13:49:30.998Z,1013.02
2017-04-13T13:50:39.907Z,1013.06
2017-04-13T13:51:49.498Z,1013
2017-04-13T13:52:58.394Z,1013.1
2017-04-13T13:54:07.291Z,1013.14
2017-04-13T13:55:16.833Z,1013.05
2017-04-13T13:56:26.056Z,1013.11
2017-04-13T13:57:35.349Z,1013.13
2017-04-13T13:58:44.245Z,1013.11
2017-04-13T13:59:53.135Z,1013.13